Terminal Aerodrome Forecast
Issued by NWS

Home | Current Version | Previous Version | Text Only | Print | Product List | Glossary On
Versions: 1 2 3 4 5 6 7 8 9 10 11 12 13 14 15 16 17 18 19 20
000
FTAK31 PAJN 291400 AAC
TAFAKT
TAF AMD
PAKT 291422Z 2914/3012 14015G25KT P6SM -SHRA VCTS BKN015 BKN025
      OVC045CB
      TEMPO 2914/2916 14023G33KT 4SM SHRA BR OVC025
     FM291600 15010KT P6SM -SHRA SCT015 BKN035
     FM300300 15006KT P6SM VCSH BKN050
      AMD LTD TO CLD VIS AND WIND 2914/2915=

USA.gov is the U.S. government's official web portal to all federal, state and local government web resources and services.